Global Andes — 3EUV2 — position and weather

sailwx.info

Track history (hours):
 
Tides and Currents Weather Stations Pressure Air Temp Water Temp Dewpoint Dewpoint Depression Visibility Wind Speed Wind Dir Waves Ship Positions

Global Andes

Last reported at 2018-Feb-15 11:42 UTC. Time now 2018-Feb-23 01:02 UTC.
Position N 35°50' W 026°08'.

Length 183 m; draft 9.6 m.

Type: Cargo ship. MMSI: 355026000.

Date/timePositionNaut miles runAvg speedWind from/ knotsBaromVisibWave heightAir tempDewpointWater temp
2018-Feb-15 11:42N 35°50' W 026°08'311.2
2018-Feb-15 11:25N 35°50' W 026°04'511.2
2018-Feb-15 11:00N 35°51' W 025°59'611.4
2018-Feb-15 10:30N 35°52' W 025°52'611.5
2018-Feb-15 10:00N 35°53' W 025°45'611.2
2018-Feb-15 09:30N 35°54' W 025°38'611.2
2018-Feb-15 09:00N 35°55' W 025°31'611.2
2018-Feb-15 08:30N 35°55' W 025°24'611.2
2018-Feb-15 08:00N 35°56' W 025°17'611.2
2018-Feb-15 07:30N 35°57' W 025°10'611.1
2018-Feb-15 07:00N 35°58' W 025°04'611.2
2018-Feb-15 06:31N 35°59' W 024°57'510.9
2018-Feb-15 06:00N 35°60' W 024°50'611.1
2018-Feb-15 05:30N 36°01' W 024°43'510.9
2018-Feb-15 05:00N 36°02' W 024°37'510.9
2018-Feb-15 04:30N 36°02' W 024°30'510.9
2018-Feb-15 04:00N 36°03' W 024°23'510.9
2018-Feb-15 03:30N 36°04' W 024°17'510.9
2018-Feb-15 03:01N 36°05' W 024°10'611.1
2018-Feb-15 02:31N 36°06' W 024°03'611.0
2018-Feb-15 02:00N 36°07' W 023°57'711.1
2018-Feb-15 01:23N 36°08' W 023°48'611.1
2018-Feb-15 00:49N 36°09' W 023°41'411.4
2018-Feb-15 00:30N 36°09' W 023°36'  
2018-Feb-11 18:25N 35°58' W 005°36'4 9.5
2018-Feb-11 18:00N 35°59' W 005°31'4 8.9
2018-Feb-11 17:30N 36°00' W 005°26'4 8.9
2018-Feb-11 17:00N 36°02' W 005°21'5 9.8
2018-Feb-11 16:30N 36°02' W 005°15'  
2018-Feb-08 07:30N 36°35' E 014°08'611.1
2018-Feb-08 07:00N 36°33' E 014°14'40410.9
2018-Feb-06 18:05N 38°14' E 022°26'212.6
2018-Feb-06 17:56N 38°13' E 022°28'612.7
2018-Feb-06 17:29N 38°12' E 022°35'612.5
2018-Feb-06 17:00N 38°10' E 022°43'712.4
2018-Feb-06 16:28N 38°09' E 022°51'511.5
2018-Feb-06 16:00N 38°10' E 022°58'  
Track history (hours):
 
Tides and Currents Weather Stations Pressure Air Temp Water Temp Dewpoint Dewpoint Depression Visibility Wind Speed Wind Dir Waves Ship Positions

Global Andes

Last reported at 2018-Feb-15 11:42 UTC. Time now 2018-Feb-23 01:02 UTC.
Position N 35°50' W 026°08'.

Length 183 m; draft 9.6 m.

Type: Cargo ship. MMSI: 355026000.

Date/timePositionNaut miles runAvg speedWind from/ knotsBaromVisibWave heightAir tempDewpointWater temp
2018-Feb-15 11:42N 35°50' W 026°08'311.2
2018-Feb-15 11:25N 35°50' W 026°04'511.2
2018-Feb-15 11:00N 35°51' W 025°59'611.4
2018-Feb-15 10:30N 35°52' W 025°52'611.5
2018-Feb-15 10:00N 35°53' W 025°45'611.2
2018-Feb-15 09:30N 35°54' W 025°38'611.2
2018-Feb-15 09:00N 35°55' W 025°31'611.2
2018-Feb-15 08:30N 35°55' W 025°24'611.2
2018-Feb-15 08:00N 35°56' W 025°17'611.2
2018-Feb-15 07:30N 35°57' W 025°10'611.1
2018-Feb-15 07:00N 35°58' W 025°04'611.2
2018-Feb-15 06:31N 35°59' W 024°57'510.9
2018-Feb-15 06:00N 35°60' W 024°50'611.1
2018-Feb-15 05:30N 36°01' W 024°43'510.9
2018-Feb-15 05:00N 36°02' W 024°37'510.9
2018-Feb-15 04:30N 36°02' W 024°30'510.9
2018-Feb-15 04:00N 36°03' W 024°23'510.9
2018-Feb-15 03:30N 36°04' W 024°17'510.9
2018-Feb-15 03:01N 36°05' W 024°10'611.1
2018-Feb-15 02:31N 36°06' W 024°03'611.0
2018-Feb-15 02:00N 36°07' W 023°57'711.1
2018-Feb-15 01:23N 36°08' W 023°48'611.1
2018-Feb-15 00:49N 36°09' W 023°41'411.4
2018-Feb-15 00:30N 36°09' W 023°36'  
2018-Feb-11 18:25N 35°58' W 005°36'4 9.5
2018-Feb-11 18:00N 35°59' W 005°31'4 8.9
2018-Feb-11 17:30N 36°00' W 005°26'4 8.9
2018-Feb-11 17:00N 36°02' W 005°21'5 9.8
2018-Feb-11 16:30N 36°02' W 005°15'  
2018-Feb-08 07:30N 36°35' E 014°08'611.1
2018-Feb-08 07:00N 36°33' E 014°14'40410.9
2018-Feb-06 18:05N 38°14' E 022°26'212.6
2018-Feb-06 17:56N 38°13' E 022°28'612.7
2018-Feb-06 17:29N 38°12' E 022°35'612.5
2018-Feb-06 17:00N 38°10' E 022°43'712.4
2018-Feb-06 16:28N 38°09' E 022°51'511.5
2018-Feb-06 16:00N 38°10' E 022°58'  

Dump ship's entire track history